createdAt,value
2023-04-09T00:00:54.182Z,6.60
2023-04-09T00:03:22.456Z,6.60
2023-04-09T00:05:49.239Z,6.60
2023-04-09T00:08:15.981Z,6.50
2023-04-09T00:10:42.574Z,6.40
2023-04-09T00:13:09.134Z,6.40
2023-04-09T00:15:36.196Z,6.30
2023-04-09T00:18:02.873Z,6.30
2023-04-09T00:20:29.551Z,6.40
2023-04-09T00:22:56.513Z,6.50
2023-04-09T00:25:23.186Z,6.50
2023-04-09T00:27:49.759Z,6.50
2023-04-09T00:30:16.496Z,6.50
2023-04-09T00:32:43.461Z,6.50
2023-04-09T00:35:10.425Z,6.60
2023-04-09T00:37:37.083Z,6.60
2023-04-09T00:40:03.769Z,6.70
2023-04-09T00:42:30.504Z,6.80
2023-04-09T00:44:57.170Z,6.90
2023-04-09T00:47:23.966Z,6.90
2023-04-09T00:49:50.640Z,7.00
2023-04-09T00:52:17.270Z,7.00
2023-04-09T00:54:44.003Z,7.10
2023-04-09T00:57:12.304Z,7.20
2023-04-09T00:59:39.010Z,7.20
2023-04-09T01:02:05.928Z,7.20
2023-04-09T01:04:32.631Z,7.30
2023-04-09T01:06:59.281Z,7.20
2023-04-09T01:09:26.584Z,7.20
2023-04-09T01:11:54.447Z,7.10
2023-04-09T01:14:21.670Z,7.10
2023-04-09T01:16:48.554Z,7.10
2023-04-09T01:19:15.579Z,7.00
2023-04-09T01:21:42.200Z,7.00
2023-04-09T01:24:09.272Z,7.00
2023-04-09T01:26:40.309Z,6.90
2023-04-09T01:29:06.978Z,6.90
2023-04-09T01:31:33.822Z,6.90
2023-04-09T01:34:03.065Z,6.90
2023-04-09T01:36:29.667Z,7.00
2023-04-09T01:38:56.261Z,6.90
2023-04-09T01:41:22.897Z,6.90
2023-04-09T01:43:49.921Z,6.90
2023-04-09T01:46:16.634Z,6.90
2023-04-09T01:48:43.354Z,6.80
2023-04-09T01:51:10.002Z,6.80
2023-04-09T01:53:36.603Z,6.80
2023-04-09T01:56:03.657Z,6.80
2023-04-09T01:58:30.491Z,6.70
2023-04-09T02:00:57.147Z,6.60
2023-04-09T02:03:23.890Z,6.60
2023-04-09T02:05:50.705Z,6.60
2023-04-09T02:08:17.373Z,6.60
2023-04-09T02:10:43.951Z,6.50
2023-04-09T02:13:10.904Z,6.50
2023-04-09T02:15:37.625Z,6.50
2023-04-09T02:18:04.357Z,6.50
2023-04-09T02:20:31.286Z,6.50
2023-04-09T02:22:57.953Z,6.40
2023-04-09T02:25:24.735Z,6.50
2023-04-09T02:27:51.407Z,6.40
2023-04-09T02:30:18.002Z,6.40
2023-04-09T02:32:44.719Z,6.40
2023-04-09T02:35:11.550Z,6.40
2023-04-09T02:37:38.521Z,6.40
2023-04-09T02:40:05.166Z,6.30
2023-04-09T02:42:31.779Z,6.30
2023-04-09T02:44:58.392Z,6.30
2023-04-09T02:47:27.281Z,6.20
2023-04-09T02:49:53.898Z,6.20
2023-04-09T02:52:24.233Z,6.20
2023-04-09T02:54:50.905Z,6.10
2023-04-09T02:57:17.539Z,6.10
2023-04-09T02:59:44.263Z,6.00
2023-04-09T03:02:11.031Z,6.00
2023-04-09T03:04:38.198Z,6.00
2023-04-09T03:07:04.893Z,5.90
2023-04-09T03:09:31.668Z,5.90
2023-04-09T03:11:58.369Z,5.90
2023-04-09T03:14:25.206Z,5.90
2023-04-09T03:16:51.791Z,5.90
2023-04-09T03:19:18.642Z,5.90
2023-04-09T03:21:46.299Z,5.80
2023-04-09T03:24:13.219Z,5.80
2023-04-09T03:26:40.314Z,5.80
2023-04-09T03:29:07.387Z,5.80
2023-04-09T03:31:34.087Z,5.80
2023-04-09T03:34:00.797Z,5.70
2023-04-09T03:36:28.430Z,5.80
2023-04-09T03:39:02.898Z,5.60
2023-04-09T03:41:38.172Z,5.60
2023-04-09T03:44:09.540Z,5.60
2023-04-09T03:46:46.572Z,5.50
2023-04-09T03:49:16.424Z,5.50
2023-04-09T03:51:44.699Z,5.50
2023-04-09T03:54:12.004Z,5.50
2023-04-09T03:56:39.743Z,5.50
2023-04-09T03:59:09.791Z,5.50
2023-04-09T04:01:42.377Z,5.40
2023-04-09T04:04:09.477Z,5.40
2023-04-09T04:06:41.186Z,5.40
2023-04-09T04:09:20.487Z,5.50
2023-04-09T04:11:52.841Z,5.40
2023-04-09T04:14:21.970Z,5.40
2023-04-09T04:16:54.244Z,5.40
2023-04-09T04:19:25.575Z,5.40
2023-04-09T04:21:52.241Z,5.40
2023-04-09T04:24:19.500Z,5.40
2023-04-09T04:26:46.212Z,5.40
2023-04-09T04:29:16.951Z,5.40
2023-04-09T04:31:52.119Z,5.30
2023-04-09T04:34:21.420Z,5.30
2023-04-09T04:36:56.378Z,5.30
2023-04-09T04:39:23.231Z,5.30
2023-04-09T04:42:01.389Z,5.30
2023-04-09T04:44:28.490Z,5.30
2023-04-09T04:47:03.880Z,5.30
2023-04-09T04:49:31.675Z,5.30
2023-04-09T04:52:00.112Z,5.20
2023-04-09T04:54:28.176Z,5.30
2023-04-09T04:56:57.413Z,5.20
2023-04-09T04:59:32.923Z,5.20
2023-04-09T05:02:05.076Z,5.20
2023-04-09T05:04:38.238Z,5.20
2023-04-09T05:07:07.068Z,5.10
2023-04-09T05:09:44.497Z,5.10
2023-04-09T05:12:11.211Z,5.10
2023-04-09T05:14:37.926Z,5.10
2023-04-09T05:17:04.640Z,5.00
2023-04-09T05:19:40.860Z,5.00
2023-04-09T05:22:08.050Z,5.00
2023-04-09T05:24:34.649Z,5.00
2023-04-09T05:27:01.393Z,5.00
2023-04-09T05:29:28.710Z,5.00
2023-04-09T05:31:55.517Z,5.00
2023-04-09T05:34:30.517Z,5.00
2023-04-09T05:36:57.561Z,5.00
2023-04-09T05:39:25.702Z,5.00
2023-04-09T05:41:52.903Z,5.00
2023-04-09T05:44:32.846Z,5.00
2023-04-09T05:47:05.435Z,5.00
2023-04-09T05:49:41.749Z,5.00
2023-04-09T05:52:12.890Z,4.90
2023-04-09T05:54:39.601Z,5.00
2023-04-09T05:57:08.775Z,5.00
2023-04-09T05:59:38.399Z,5.10
2023-04-09T06:02:05.171Z,5.10
2023-04-09T06:04:33.642Z,5.10
2023-04-09T06:07:00.637Z,5.10
2023-04-09T06:09:27.947Z,5.20
2023-04-09T06:11:54.708Z,5.20
2023-04-09T06:14:21.358Z,5.20
2023-04-09T06:16:48.396Z,5.30
2023-04-09T06:19:15.437Z,5.30
2023-04-09T06:21:42.390Z,5.40
2023-04-09T06:24:09.040Z,5.40
2023-04-09T06:26:36.537Z,5.40
2023-04-09T06:29:03.408Z,5.40
2023-04-09T06:31:30.171Z,5.40
2023-04-09T06:33:56.883Z,5.40
2023-04-09T06:36:23.529Z,5.40
2023-04-09T06:38:50.222Z,5.50
2023-04-09T06:41:16.973Z,5.50
2023-04-09T06:43:43.553Z,5.60
2023-04-09T06:46:10.192Z,5.60
2023-04-09T06:48:36.833Z,5.60
2023-04-09T06:51:03.439Z,5.60
2023-04-09T06:53:30.574Z,5.60
2023-04-09T06:55:57.341Z,5.70
2023-04-09T06:58:23.945Z,5.80
2023-04-09T07:00:50.694Z,5.90
2023-04-09T07:03:17.441Z,6.10
2023-04-09T07:05:44.278Z,6.10
2023-04-09T07:08:11.756Z,6.20
2023-04-09T07:10:38.428Z,6.20
2023-04-09T07:13:05.164Z,6.20
2023-04-09T07:15:31.777Z,6.20
2023-04-09T07:17:58.646Z,6.30
2023-04-09T07:20:25.390Z,6.30
2023-04-09T07:22:51.996Z,6.30
2023-04-09T07:25:18.666Z,6.40
2023-04-09T07:27:45.305Z,6.60
2023-04-09T07:30:11.903Z,6.80
2023-04-09T07:32:38.570Z,6.90
2023-04-09T07:35:05.178Z,7.10
2023-04-09T07:37:31.835Z,7.30
2023-04-09T07:39:58.563Z,7.40
2023-04-09T07:42:25.617Z,7.60
2023-04-09T07:44:52.313Z,7.70
2023-04-09T07:47:18.987Z,7.90
2023-04-09T07:49:46.063Z,8.10
2023-04-09T07:52:12.678Z,8.20
2023-04-09T07:54:39.251Z,8.30
2023-04-09T07:57:05.878Z,8.30
2023-04-09T07:59:32.509Z,8.40
2023-04-09T08:01:59.228Z,8.60
2023-04-09T08:04:27.154Z,8.70
2023-04-09T08:06:54.019Z,9.00
2023-04-09T08:09:20.749Z,9.10
2023-04-09T08:11:47.417Z,9.30
2023-04-09T08:14:14.067Z,9.50
2023-04-09T08:16:41.532Z,9.70
2023-04-09T08:19:08.244Z,9.80
2023-04-09T08:21:34.865Z,9.90
2023-04-09T08:24:04.403Z,10.10
2023-04-09T08:26:31.105Z,10.20
2023-04-09T08:28:57.905Z,10.40
2023-04-09T08:31:24.647Z,10.50
2023-04-09T08:33:53.531Z,10.60
2023-04-09T08:36:20.454Z,10.90
2023-04-09T08:38:47.608Z,11.00
2023-04-09T08:41:15.111Z,11.20
2023-04-09T08:43:57.009Z,11.50
2023-04-09T08:46:26.101Z,11.60
2023-04-09T08:48:53.186Z,11.70
2023-04-09T08:51:20.029Z,11.90
2023-04-09T08:53:47.602Z,12.00
2023-04-09T08:56:14.496Z,12.10
2023-04-09T08:58:41.062Z,12.30
2023-04-09T09:01:07.910Z,12.40
2023-04-09T09:03:34.558Z,12.50
2023-04-09T09:06:01.237Z,12.70
2023-04-09T09:08:27.878Z,12.60
2023-04-09T09:10:54.612Z,12.50
2023-04-09T09:13:22.300Z,12.40
2023-04-09T09:15:50.637Z,12.40
2023-04-09T09:18:17.223Z,12.20
2023-04-09T09:20:43.965Z,12.40
2023-04-09T09:23:11.591Z,12.50
2023-04-09T09:25:38.205Z,12.60
2023-04-09T09:28:04.798Z,12.80
2023-04-09T09:30:32.451Z,13.00
2023-04-09T09:32:59.186Z,13.20
2023-04-09T09:35:26.041Z,13.40
2023-04-09T09:37:54.790Z,13.50
2023-04-09T09:40:21.548Z,13.70
2023-04-09T09:42:48.153Z,13.80
2023-04-09T09:45:14.816Z,13.80
2023-04-09T09:47:41.765Z,13.70
2023-04-09T09:50:08.485Z,13.90
2023-04-09T09:52:35.164Z,14.10
2023-04-09T09:55:01.764Z,14.10
2023-04-09T09:57:28.389Z,14.10
2023-04-09T09:59:54.981Z,14.10
2023-04-09T10:02:21.899Z,14.00
2023-04-09T10:04:48.822Z,13.80
2023-04-09T10:07:16.106Z,13.80
2023-04-09T10:09:43.354Z,13.90
2023-04-09T10:12:10.089Z,14.10
2023-04-09T10:14:36.976Z,14.40
2023-04-09T10:17:04.104Z,14.50
2023-04-09T10:19:30.847Z,14.70
2023-04-09T10:21:57.845Z,14.60
2023-04-09T10:24:25.691Z,14.80
2023-04-09T10:26:52.298Z,14.70
2023-04-09T10:29:19.045Z,14.70
2023-04-09T10:31:45.669Z,15.00
2023-04-09T10:34:12.405Z,15.10
2023-04-09T10:36:39.034Z,15.20
2023-04-09T10:39:05.695Z,15.30
2023-04-09T10:41:32.349Z,15.50
2023-04-09T10:44:00.000Z,15.50
2023-04-09T10:46:29.648Z,15.80
2023-04-09T10:48:56.298Z,16.20
2023-04-09T10:51:24.089Z,16.60
2023-04-09T10:53:50.842Z,17.00
2023-04-09T10:56:17.430Z,17.50
2023-04-09T10:58:44.073Z,17.70
2023-04-09T11:01:10.702Z,17.70
2023-04-09T11:03:37.421Z,17.60
2023-04-09T11:06:06.032Z,17.60
2023-04-09T11:08:32.733Z,17.70
2023-04-09T11:11:01.275Z,17.90
2023-04-09T11:13:28.295Z,18.40
2023-04-09T11:15:54.950Z,18.40
2023-04-09T11:18:22.082Z,18.40
2023-04-09T11:20:48.699Z,18.80
2023-04-09T11:23:34.260Z,18.90
2023-04-09T11:26:02.029Z,19.10
2023-04-09T11:28:28.725Z,19.10
2023-04-09T11:30:55.461Z,19.20
2023-04-09T11:33:43.195Z,18.50
2023-04-09T11:36:10.038Z,18.90
2023-04-09T11:38:36.695Z,19.30
2023-04-09T11:41:03.431Z,19.20
2023-04-09T11:43:48.973Z,19.50
2023-04-09T11:46:15.771Z,19.70
2023-04-09T11:48:42.388Z,19.90
2023-04-09T11:51:09.154Z,20.30
2023-04-09T11:53:39.971Z,20.30
2023-04-09T11:56:07.156Z,20.90
2023-04-09T11:58:33.806Z,20.80
2023-04-09T12:01:00.586Z,20.20
2023-04-09T12:03:28.601Z,20.00
2023-04-09T12:05:55.432Z,20.10
2023-04-09T12:08:22.074Z,20.50
2023-04-09T12:10:48.845Z,20.70
2023-04-09T12:13:16.648Z,20.80
2023-04-09T12:15:46.522Z,21.20
2023-04-09T12:18:13.318Z,21.60
2023-04-09T12:20:39.943Z,21.30
2023-04-09T12:23:06.596Z,21.20
2023-04-09T12:25:33.308Z,20.80
2023-04-09T12:27:59.968Z,21.00
2023-04-09T12:30:26.730Z,21.20
2023-04-09T12:32:53.635Z,21.50
2023-04-09T12:35:22.036Z,21.50
2023-04-09T12:37:48.790Z,21.60
2023-04-09T12:40:15.610Z,21.20
2023-04-09T12:42:42.308Z,21.00
2023-04-09T12:45:10.112Z,20.90
2023-04-09T12:47:36.719Z,20.80
2023-04-09T12:50:04.032Z,21.30
2023-04-09T12:52:30.778Z,21.80
2023-04-09T12:54:58.799Z,22.10
2023-04-09T12:57:25.648Z,22.40
2023-04-09T12:59:52.272Z,22.60
2023-04-09T13:02:19.044Z,22.20
2023-04-09T13:04:45.865Z,22.00
2023-04-09T13:07:15.593Z,21.60
2023-04-09T13:09:42.234Z,21.60
2023-04-09T13:12:08.880Z,22.20
2023-04-09T13:14:38.685Z,22.00
2023-04-09T13:17:05.483Z,22.10
2023-04-09T13:19:32.364Z,22.60
2023-04-09T13:21:59.015Z,22.40
2023-04-09T13:24:27.875Z,22.50
2023-04-09T13:26:54.493Z,22.90
2023-04-09T13:29:21.358Z,22.50
2023-04-09T13:31:47.992Z,22.50
2023-04-09T13:34:35.835Z,22.50
2023-04-09T13:37:02.464Z,22.50
2023-04-09T13:39:30.468Z,22.60
2023-04-09T13:41:57.210Z,22.20
2023-04-09T13:44:26.935Z,22.20
2023-04-09T13:46:53.646Z,22.40
2023-04-09T13:49:21.118Z,22.90
2023-04-09T13:51:47.754Z,23.10
2023-04-09T13:54:16.603Z,23.70
2023-04-09T13:56:43.266Z,23.20
2023-04-09T13:59:09.986Z,22.60
2023-04-09T14:01:36.989Z,22.70
2023-04-09T14:04:04.029Z,23.20
2023-04-09T14:06:31.355Z,23.20
2023-04-09T14:08:58.108Z,23.10
2023-04-09T14:11:24.742Z,22.80
2023-04-09T14:13:51.821Z,23.10
2023-04-09T14:16:18.680Z,23.30
2023-04-09T14:18:45.756Z,23.60
2023-04-09T14:21:12.540Z,23.40
2023-04-09T14:23:39.213Z,22.50
2023-04-09T14:26:06.022Z,22.30
2023-04-09T14:28:33.216Z,22.90
2023-04-09T14:31:00.068Z,22.90
2023-04-09T14:33:26.832Z,23.20
2023-04-09T14:35:53.694Z,22.80
2023-04-09T14:38:20.607Z,22.50
2023-04-09T14:40:49.152Z,23.30
2023-04-09T14:43:16.060Z,23.50
2023-04-09T14:45:44.688Z,23.40
2023-04-09T14:48:11.360Z,23.40
2023-04-09T14:50:38.118Z,23.00
2023-04-09T14:53:04.923Z,22.80
2023-04-09T14:55:31.665Z,22.60
2023-04-09T14:57:58.534Z,22.10
2023-04-09T15:00:25.468Z,21.80
2023-04-09T15:02:52.374Z,21.20
2023-04-09T15:05:19.146Z,21.00
2023-04-09T15:07:45.868Z,21.00
2023-04-09T15:10:12.582Z,21.00
2023-04-09T15:12:39.243Z,21.20
2023-04-09T15:15:07.261Z,21.40
2023-04-09T15:17:34.181Z,21.70
2023-04-09T15:20:00.922Z,22.10
2023-04-09T15:22:27.549Z,22.30
2023-04-09T15:24:54.334Z,22.30
2023-04-09T15:27:21.199Z,22.40
2023-04-09T15:29:47.961Z,22.30
2023-04-09T15:32:17.117Z,22.10
2023-04-09T15:34:44.045Z,21.80
2023-04-09T15:37:10.786Z,21.30
2023-04-09T15:39:37.738Z,20.70
2023-04-09T15:42:04.361Z,20.30
2023-04-09T15:44:31.048Z,20.10
2023-04-09T15:46:57.682Z,19.80
2023-04-09T15:49:24.533Z,19.50
2023-04-09T15:51:51.309Z,19.20
2023-04-09T15:54:18.210Z,19.10
2023-04-09T15:56:44.958Z,19.00
2023-04-09T15:59:11.632Z,19.10
2023-04-09T16:01:38.299Z,18.80
2023-04-09T16:04:05.152Z,18.80
2023-04-09T16:06:32.008Z,18.80
2023-04-09T16:08:58.669Z,18.60
2023-04-09T16:11:25.942Z,18.30
2023-04-09T16:13:52.694Z,18.00
2023-04-09T16:16:19.441Z,17.80
2023-04-09T16:18:46.150Z,17.70
2023-04-09T16:21:12.839Z,17.60
2023-04-09T16:23:39.915Z,17.60
2023-04-09T16:26:06.636Z,17.40
2023-04-09T16:28:33.306Z,17.20
2023-04-09T16:30:59.965Z,17.20
2023-04-09T16:33:26.648Z,17.20
2023-04-09T16:35:53.274Z,17.10
2023-04-09T16:38:20.131Z,16.90
2023-04-09T16:40:46.866Z,16.70
2023-04-09T16:43:13.471Z,16.70
2023-04-09T16:45:40.285Z,16.60
2023-04-09T16:48:11.996Z,16.50
2023-04-09T16:50:38.926Z,16.50
2023-04-09T16:53:05.572Z,16.40
2023-04-09T16:55:32.148Z,16.20
2023-04-09T16:57:58.859Z,16.10
2023-04-09T17:00:25.783Z,15.90
2023-04-09T17:02:52.661Z,15.80
2023-04-09T17:05:19.507Z,15.80
2023-04-09T17:07:46.134Z,15.60
2023-04-09T17:10:12.975Z,15.60
2023-04-09T17:12:40.125Z,15.60
2023-04-09T17:15:07.308Z,15.50
2023-04-09T17:17:34.697Z,15.50
2023-04-09T17:20:01.601Z,15.50
2023-04-09T17:22:28.376Z,15.50
2023-04-09T17:24:55.009Z,15.40
2023-04-09T17:27:21.793Z,15.30
2023-04-09T17:29:48.472Z,15.20
2023-04-09T17:32:15.496Z,15.00
2023-04-09T17:34:42.164Z,15.00
2023-04-09T17:37:08.766Z,15.10
2023-04-09T17:39:35.761Z,15.10
2023-04-09T17:42:04.608Z,15.00
2023-04-09T17:44:35.047Z,14.90
2023-04-09T17:47:02.799Z,14.90
2023-04-09T17:49:29.378Z,14.90
2023-04-09T17:51:56.025Z,14.80
2023-04-09T17:54:22.643Z,14.70
2023-04-09T17:56:52.340Z,14.70
2023-04-09T17:59:19.013Z,14.60
2023-04-09T18:01:45.795Z,14.50
2023-04-09T18:04:12.895Z,14.40
2023-04-09T18:06:40.186Z,14.40
2023-04-09T18:09:07.614Z,14.40
2023-04-09T18:11:34.263Z,14.30
2023-04-09T18:14:00.929Z,14.20
2023-04-09T18:16:27.610Z,14.20
2023-04-09T18:18:54.417Z,14.10
2023-04-09T18:21:22.016Z,14.10
2023-04-09T18:23:48.730Z,14.00
2023-04-09T18:26:15.843Z,13.90
2023-04-09T18:28:42.577Z,13.90
2023-04-09T18:31:09.271Z,13.90
2023-04-09T18:33:36.369Z,13.80
2023-04-09T18:36:03.078Z,13.80
2023-04-09T18:38:29.784Z,13.70
2023-04-09T18:40:56.702Z,13.60
2023-04-09T18:43:23.344Z,13.60
2023-04-09T18:45:49.935Z,13.50
2023-04-09T18:48:16.574Z,13.50
2023-04-09T18:50:43.165Z,13.40
2023-04-09T18:53:09.886Z,13.30
2023-04-09T18:55:37.918Z,13.20
2023-04-09T18:58:08.738Z,13.20
2023-04-09T19:00:35.734Z,13.20
2023-04-09T19:03:02.445Z,13.10
2023-04-09T19:05:29.202Z,13.10
2023-04-09T19:07:56.066Z,13.10
2023-04-09T19:10:22.699Z,13.00
2023-04-09T19:12:53.738Z,13.00
2023-04-09T19:15:20.490Z,12.90
2023-04-09T19:17:47.351Z,12.90
2023-04-09T19:20:14.214Z,12.90
2023-04-09T19:22:40.810Z,12.80
2023-04-09T19:25:08.441Z,12.80
2023-04-09T19:27:35.105Z,12.80
2023-04-09T19:30:01.745Z,12.80
2023-04-09T19:32:28.449Z,12.70
2023-04-09T19:34:55.782Z,12.60
2023-04-09T19:37:27.171Z,12.60
2023-04-09T19:39:53.866Z,12.60
2023-04-09T19:42:20.769Z,12.60
2023-04-09T19:44:47.460Z,12.50
2023-04-09T19:47:14.344Z,12.50
2023-04-09T19:49:41.730Z,12.50
2023-04-09T19:52:09.053Z,12.50
2023-04-09T19:54:35.702Z,12.40
2023-04-09T19:57:02.393Z,12.40
2023-04-09T19:59:29.054Z,12.40
2023-04-09T20:01:56.539Z,12.40
2023-04-09T20:04:24.715Z,12.30
2023-04-09T20:06:51.739Z,12.30
2023-04-09T20:09:18.389Z,12.30
2023-04-09T20:11:45.012Z,12.30
2023-04-09T20:14:12.160Z,12.20
2023-04-09T20:16:38.927Z,12.20
2023-04-09T20:19:05.833Z,12.20
2023-04-09T20:21:32.612Z,12.10
2023-04-09T20:23:59.228Z,12.10
2023-04-09T20:26:25.837Z,12.10
2023-04-09T20:28:52.745Z,12.10
2023-04-09T20:31:20.008Z,12.10
2023-04-09T20:33:47.091Z,12.10
2023-04-09T20:36:13.756Z,12.10
2023-04-09T20:38:40.500Z,12.10
2023-04-09T20:41:07.118Z,12.10
2023-04-09T20:43:33.855Z,12.10
2023-04-09T20:46:00.609Z,12.00
2023-04-09T20:48:27.350Z,12.00
2023-04-09T20:50:53.969Z,12.00
2023-04-09T20:53:20.653Z,12.00
2023-04-09T20:55:47.655Z,12.00
2023-04-09T20:58:14.285Z,12.00
2023-04-09T21:00:40.966Z,12.00
2023-04-09T21:03:08.405Z,11.90
2023-04-09T21:05:35.656Z,12.00
2023-04-09T21:08:02.294Z,12.00
2023-04-09T21:10:28.956Z,11.90
2023-04-09T21:12:55.758Z,11.90
2023-04-09T21:15:22.392Z,11.90
2023-04-09T21:17:49.101Z,11.90
2023-04-09T21:20:16.603Z,11.90
2023-04-09T21:22:43.308Z,11.90
2023-04-09T21:25:09.952Z,11.90
2023-04-09T21:27:36.571Z,11.90
2023-04-09T21:30:03.719Z,11.90
2023-04-09T21:32:31.300Z,11.90
2023-04-09T21:34:58.910Z,11.90
2023-04-09T21:37:26.719Z,11.90
2023-04-09T21:39:53.431Z,11.90
2023-04-09T21:42:20.050Z,11.90
2023-04-09T21:44:46.814Z,11.90
2023-04-09T21:47:13.440Z,11.90
2023-04-09T21:49:40.653Z,11.90
2023-04-09T21:52:14.076Z,11.90
2023-04-09T21:54:41.202Z,11.90
2023-04-09T21:57:08.064Z,11.80
2023-04-09T21:59:36.292Z,11.80
2023-04-09T22:02:03.000Z,11.80
2023-04-09T22:04:29.862Z,11.90
2023-04-09T22:06:56.530Z,11.90
2023-04-09T22:09:26.424Z,11.90
2023-04-09T22:11:53.558Z,11.80
2023-04-09T22:14:21.273Z,11.80
2023-04-09T22:16:48.308Z,11.80
2023-04-09T22:19:15.313Z,11.80
2023-04-09T22:21:41.982Z,11.80
2023-04-09T22:24:08.598Z,11.80
2023-04-09T22:26:35.224Z,11.80
2023-04-09T22:29:04.286Z,11.80
2023-04-09T22:31:32.396Z,11.80
2023-04-09T22:34:06.903Z,11.80
2023-04-09T22:36:41.418Z,11.80
2023-04-09T22:39:08.010Z,11.80
2023-04-09T22:41:34.612Z,11.80
2023-04-09T22:44:01.869Z,11.80
2023-04-09T22:46:29.099Z,11.80
2023-04-09T22:49:04.208Z,11.70
2023-04-09T22:51:34.426Z,11.80
2023-04-09T22:54:01.882Z,11.70
2023-04-09T22:56:28.827Z,11.70
2023-04-09T22:58:55.858Z,11.70
2023-04-09T23:01:23.377Z,11.70
2023-04-09T23:03:50.117Z,11.70
2023-04-09T23:06:20.049Z,11.70
2023-04-09T23:08:46.756Z,11.70
2023-04-09T23:11:13.434Z,11.70
2023-04-09T23:13:40.430Z,11.70
2023-04-09T23:16:07.132Z,11.70
2023-04-09T23:18:33.786Z,11.70
2023-04-09T23:21:00.364Z,11.60
2023-04-09T23:23:26.971Z,11.60
2023-04-09T23:25:53.537Z,11.60
2023-04-09T23:28:20.190Z,11.60
2023-04-09T23:30:46.812Z,11.60
2023-04-09T23:33:13.655Z,11.60
2023-04-09T23:35:40.612Z,11.60
2023-04-09T23:38:07.266Z,11.60
2023-04-09T23:40:33.861Z,11.60
2023-04-09T23:43:00.507Z,11.60
2023-04-09T23:45:27.169Z,11.60
2023-04-09T23:47:53.800Z,11.60
2023-04-09T23:50:23.037Z,11.60
2023-04-09T23:52:49.755Z,11.60
2023-04-09T23:55:16.625Z,11.50
2023-04-09T23:57:43.677Z,11.50
